Time;durP1;ratioP1;P1;durP2;ratioP2;P2;SDS_P1;SDS_P2;PMS_P1;PMS_P2;Temp;Humidity;BMP_temperature;BMP_pressure;BME280_temperature;BME280_humidity;BME280_pressure;Samples;Min_cycle;Max_cycle;Signal;HPM_P1;HPM_P2
2023/06/07 00:03:49;;;;;;;;;;;23.60;34.20;;;22.66;32.85;101428.28;12219252;19;19935;-86
2023/06/07 00:07:51;;;;;;;;;;;23.60;34.30;;;22.83;32.89;101469.28;12251488;19;19934;-86
2023/06/07 00:11:53;;;;;;;;;;;23.50;34.00;;;22.78;32.81;101468.88;12249146;19;19922;-85
2023/06/07 00:15:54;;;;;;;;;;;23.50;33.90;;;22.72;33.14;101464.13;12261134;19;19922;-85
2023/06/07 00:19:56;;;;;;;;;;;23.40;34.10;;;22.59;33.09;101448.47;12263699;19;19911;-85
2023/06/07 00:23:58;;;;;;;;;;;23.50;34.00;;;22.71;33.33;101478.41;12260604;19;19936;-85
2023/06/07 00:27:59;;;;;;;;;;;23.40;33.90;;;22.71;33.14;101470.44;12262240;19;19915;-85
2023/06/07 00:32:02;;;;;;;;;;;23.40;34.00;;;22.44;33.14;101434.81;12258743;19;19914;-84
2023/06/07 00:36:05;;;;;;;;;;;23.40;34.00;;;22.70;33.02;101474.09;12259773;19;19949;-85
2023/06/07 00:40:07;;;;;;;;;;;23.40;34.00;;;22.66;33.08;101470.06;12259279;19;19915;-84
2023/06/07 00:44:08;;;;;;;;;;;23.40;34.00;;;22.65;33.12;101471.00;12257510;19;19932;-85
2023/06/07 00:48:10;;;;;;;;;;;23.30;33.90;;;22.63;33.23;101465.00;12262553;19;19923;-85
2023/06/07 00:52:12;;;;;;;;;;;23.30;33.90;;;22.57;33.18;101466.41;12261706;19;20268;-85
2023/06/07 00:56:15;;;;;;;;;;;23.30;33.90;;;22.36;33.19;101431.16;12259939;19;19929;-85
2023/06/07 01:00:18;;;;;;;;;;;23.30;33.90;;;22.54;33.30;101469.38;12261569;19;19923;-85
2023/06/07 01:04:20;;;;;;;;;;;23.30;34.00;;;22.52;33.01;101458.88;12260041;19;19918;-85
2023/06/07 01:08:23;;;;;;;;;;;23.20;33.90;;;22.45;33.09;101455.09;12260725;19;19915;-85
2023/06/07 01:12:25;;;;;;;;;;;23.20;33.90;;;22.41;33.10;101453.69;12260150;19;20334;-85
2023/06/07 01:16:27;;;;;;;;;;;23.20;33.90;;;22.41;33.09;101452.88;12261273;19;19910;-85
2023/06/07 01:20:29;;;;;;;;;;;23.20;33.80;;;22.40;33.23;101461.84;12257849;19;20276;-85
2023/06/07 01:24:35;;;;;;;;;;;23.20;33.80;;;22.31;33.18;101445.75;12257716;19;19921;-85
2023/06/07 01:28:41;;;;;;;;;;;23.10;33.80;;;22.35;33.25;101456.13;12259542;19;19911;-85
2023/06/07 01:32:44;;;;;;;;;;;23.10;33.90;;;22.27;33.34;101457.66;12251521;19;19982;-85
2023/06/07 01:36:49;;;;;;;;;;;23.00;33.80;;;22.16;33.58;101439.16;12259321;19;19911;-85
2023/06/07 01:40:51;;;;;;;;;;;23.00;33.90;;;22.20;33.44;101464.56;12256950;19;20619;-85
2023/06/07 01:44:53;;;;;;;;;;;23.00;33.80;;;22.17;33.35;101453.31;12257676;19;20329;-85
2023/06/07 01:48:55;;;;;;;;;;;22.90;33.80;;;22.22;33.05;101464.41;12267992;19;19923;-85
2023/06/07 01:52:58;;;;;;;;;;;22.90;33.90;;;22.15;33.35;101449.97;12265527;19;20300;-85
2023/06/07 01:57:06;;;;;;;;;;;22.90;33.90;;;22.18;33.42;101457.66;12267598;19;19915;-85
2023/06/07 02:01:25;;;;;;;;;;;22.90;34.00;;;22.14;33.13;101453.59;12266896;19;19907;-85
2023/06/07 02:05:32;;;;;;;;;;;22.80;34.00;;;22.08;33.62;101433.72;12271794;19;19923;-86
2023/06/07 02:09:38;;;;;;;;;;;22.80;34.00;;;22.07;33.22;101440.88;12265762;19;19923;-84
2023/06/07 02:13:43;;;;;;;;;;;22.80;34.00;;;22.03;33.27;101436.81;12264860;19;19910;-85
2023/06/07 02:17:57;;;;;;;;;;;22.90;34.00;;;22.14;33.55;101456.25;12268912;19;19945;-84
2023/06/07 02:21:59;;;;;;;;;;;22.80;34.10;;;22.02;33.65;101440.44;12266781;19;19935;-85
2023/06/07 02:26:01;;;;;;;;;;;22.80;34.00;;;22.01;33.27;101437.94;12270126;19;19915;-85
2023/06/07 02:30:03;;;;;;;;;;;22.80;34.00;;;22.00;33.42;101441.56;12264596;19;19935;-85
2023/06/07 02:34:08;;;;;;;;;;;22.70;33.90;;;21.94;33.73;101436.81;12262231;19;19929;-85
2023/06/07 02:38:10;;;;;;;;;;;22.70;34.00;;;21.94;33.39;101434.16;12269507;19;19911;-84
2023/06/07 02:42:12;;;;;;;;;;;22.70;34.00;;;21.88;33.36;101432.91;12264207;19;20371;-85
2023/06/07 02:46:14;;;;;;;;;;;22.70;34.00;;;21.82;33.72;101425.50;12268446;19;19922;-85
2023/06/07 02:50:17;;;;;;;;;;;22.60;34.00;;;21.93;33.81;101443.09;12266286;19;19918;-84
2023/06/07 02:54:19;;;;;;;;;;;22.60;34.00;;;;;;12268134;19;19983;-85
2023/06/07 02:58:21;;;;;;;;;;;22.60;33.90;;;21.77;33.89;101419.78;12265148;19;19921;-85
2023/06/07 03:02:23;;;;;;;;;;;22.60;34.00;;;21.83;33.67;101438.66;12262718;19;19911;-85
2023/06/07 03:06:29;;;;;;;;;;;22.60;34.00;;;21.81;33.43;101435.28;12266216;19;19911;-85
2023/06/07 03:10:34;;;;;;;;;;;22.60;34.00;;;21.75;33.36;101433.19;12259817;19;19931;-85
2023/06/07 03:14:41;;;;;;;;;;;22.60;34.00;;;21.72;33.85;101428.16;12262000;19;20245;-85
2023/06/07 03:18:44;;;;;;;;;;;22.50;34.10;;;21.54;33.67;101403.25;12263797;19;20337;-85
2023/06/07 03:22:46;;;;;;;;;;;22.50;34.00;;;21.58;33.64;101431.25;12261483;19;19921;-85
2023/06/07 03:26:50;;;;;;;;;;;22.50;34.10;;;21.56;33.83;101428.72;12265027;19;19930;-84
2023/06/07 03:30:53;;;;;;;;;;;22.40;34.10;;;21.57;33.81;101441.00;12262835;19;20276;-85
2023/06/07 03:35:01;;;;;;;;;;;22.40;34.20;;;21.56;33.55;101441.16;12265922;19;20361;-84
2023/06/07 03:39:03;;;;;;;;;;;22.30;34.10;;;21.42;33.54;101424.66;12266035;19;19933;-85
2023/06/07 03:43:06;;;;;;;;;;;22.30;34.20;;;21.31;33.64;101415.94;12262090;19;20315;-84
2023/06/07 03:47:08;;;;;;;;;;;22.30;34.20;;;21.29;33.84;101415.22;12268838;19;20296;-85
2023/06/07 03:51:10;;;;;;;;;;;22.20;34.20;;;21.45;33.84;101450.09;12260865;19;19993;-85
2023/06/07 03:55:13;;;;;;;;;;;22.20;34.30;;;21.43;33.98;101452.06;12260294;19;19923;-85
2023/06/07 03:59:15;;;;;;;;;;;22.20;34.40;;;21.42;33.84;101447.72;12263033;19;19922;-85
2023/06/07 04:03:24;;;;;;;;;;;22.10;34.40;;;21.32;34.06;101434.38;12253119;19;19966;-85
2023/06/07 04:07:28;;;;;;;;;;;22.10;34.50;;;21.28;34.17;101427.69;12263548;19;19950;-84
2023/06/07 04:11:31;;;;;;;;;;;22.10;34.50;;;21.38;33.86;101446.31;12259863;19;19932;-85
2023/06/07 04:15:32;;;;;;;;;;;22.10;34.60;;;21.13;34.16;101405.97;12264023;19;19926;-84
2023/06/07 04:19:35;;;;;;;;;;;22.10;34.50;;;21.35;33.98;101439.41;12261798;19;20356;-85
2023/06/07 04:23:36;;;;;;;;;;;22.10;34.50;;;21.32;34.29;101446.84;12253545;19;19926;-86
2023/06/07 04:27:39;;;;;;;;;;;22.10;34.60;;;21.35;34.09;101446.56;12257219;19;19919;-85
2023/06/07 04:31:43;;;;;;;;;;;22.10;34.60;;;21.30;34.01;101438.97;12246474;19;19919;-85
2023/06/07 04:35:46;;;;;;;;;;;22.10;34.60;;;21.26;34.31;101431.44;12258689;19;19922;-85
2023/06/07 04:39:51;;;;;;;;;;;22.10;34.60;;;21.28;34.15;101440.09;12254641;19;19925;-84
2023/06/07 04:43:54;;;;;;;;;;;22.10;34.60;;;21.34;34.12;101444.88;12251828;19;19922;-85
2023/06/07 04:48:04;;;;;;;;;;;22.10;34.60;;;21.31;34.29;101447.81;12255188;19;20309;-85
2023/06/07 04:52:07;;;;;;;;;;;22.10;34.70;;;21.33;34.39;101448.50;12252585;19;19911;-85
2023/06/07 04:56:11;;;;;;;;;;;22.10;34.80;;;21.12;34.03;101419.41;12258038;19;19988;-85
2023/06/07 05:00:15;;;;;;;;;;;22.10;34.70;;;21.04;34.34;101406.78;12258894;19;19927;-85
2023/06/07 05:04:20;;;;;;;;;;;22.10;34.80;;;21.32;34.37;101452.16;12255806;19;19926;-86
2023/06/07 05:08:28;;;;;;;;;;;22.10;34.80;;;21.35;33.96;101459.84;12257143;19;19927;-85
2023/06/07 05:12:30;;;;;;;;;;;22.10;34.90;;;21.28;34.13;101442.75;12254044;19;19919;-85
2023/06/07 05:16:32;;;;;;;;;;;22.10;34.90;;;21.30;34.26;101446.13;12253755;19;19915;-86
2023/06/07 05:20:35;;;;;;;;;;;22.10;35.00;;;21.26;34.06;101447.38;12258178;19;19915;-84
2023/06/07 05:24:38;;;;;;;;;;;22.10;35.20;;;21.32;34.31;101455.63;12267787;19;19924;-84
2023/06/07 05:28:40;;;;;;;;;;;22.10;35.00;;;21.28;34.41;101456.91;12270215;19;19918;-85
2023/06/07 05:32:42;;;;;;;;;;;22.10;35.20;;;21.28;34.43;101462.22;12264680;19;19919;-85
2023/06/07 05:36:43;;;;;;;;;;;22.10;35.00;;;21.28;34.22;101458.69;12267796;19;20383;-84
2023/06/07 05:40:45;;;;;;;;;;;22.10;35.20;;;21.14;34.49;101428.03;12263252;19;19914;-86
2023/06/07 05:44:48;;;;;;;;;;;22.10;35.10;;;21.18;34.36;101429.47;12267455;19;19910;-86
2023/06/07 05:48:50;;;;;;;;;;;22.10;35.20;;;21.15;34.65;101425.28;12259943;19;19955;-85
2023/06/07 05:52:57;;;;;;;;;;;22.20;35.20;;;21.45;34.73;101467.88;12259087;19;19919;-85
2023/06/07 05:56:58;;;;;;;;;;;22.20;35.30;;;21.39;34.70;101448.00;12262062;19;19922;-85
2023/06/07 06:01:00;;;;;;;;;;;22.20;35.30;;;21.45;34.64;101449.28;12263379;19;19919;-85
2023/06/07 06:05:02;;;;;;;;;;;22.30;35.20;;;21.57;34.71;101462.28;12258841;19;19927;-85
2023/06/07 06:09:04;;;;;;;;;;;22.40;35.20;;;21.59;34.69;101460.31;12263819;19;20289;-85
2023/06/07 06:13:06;;;;;;;;;;;22.40;35.10;;;21.74;34.51;101474.06;12259853;19;19926;-85
2023/06/07 06:17:07;;;;;;;;;;;22.60;35.40;;;21.61;34.95;101445.09;12266541;19;20310;-86
2023/06/07 06:21:08;;;;;;;;;;;22.70;35.30;;;21.95;34.65;101476.56;12262746;19;19978;-86
2023/06/07 06:25:12;;;;;;;;;;;22.80;35.40;;;22.09;34.80;101478.81;12265585;19;19932;-86
2023/06/07 06:29:13;;;;;;;;;;;23.00;35.60;;;22.20;34.68;101482.34;12263948;19;19910;-86
2023/06/07 06:33:15;;;;;;;;;;;23.00;35.40;;;22.26;34.97;101468.47;12256456;19;19919;-85
2023/06/07 06:37:16;;;;;;;;;;;23.40;35.80;;;22.42;34.82;101484.69;12259752;19;19915;-85
2023/06/07 06:41:17;;;;;;;;;;;23.30;35.30;;;22.58;35.05;101483.25;12259984;19;19918;-85
2023/06/07 06:45:19;;;;;;;;;;;23.50;35.40;;;22.69;34.83;101480.41;12261214;19;20260;-85
2023/06/07 06:49:20;;;;;;;;;;;23.70;35.70;;;22.85;34.67;101472.63;12260958;19;19923;-84
2023/06/07 06:53:22;;;;;;;;;;;23.80;35.60;;;22.98;34.78;101464.34;12258114;19;19915;-84
2023/06/07 06:57:24;;;;;;;;;;;24.00;35.10;;;23.09;34.59;101468.66;12263010;19;19986;-85
2023/06/07 07:01:41;;;;;;;;;;;24.10;35.10;;;23.29;34.65;101467.53;12258413;19;19956;-84
2023/06/07 07:05:42;;;;;;;;;;;24.20;34.90;;;23.45;34.83;101469.53;12261342;19;19974;-84
2023/06/07 07:09:44;;;;;;;;;;;24.40;34.80;;;23.58;34.73;101466.50;12260642;19;19935;-84
2023/06/07 07:13:46;;;;;;;;;;;24.50;34.20;;;23.65;34.78;101451.56;12258537;19;19926;-84
2023/06/07 07:17:48;;;;;;;;;;;24.70;34.00;;;23.95;34.57;101477.06;12269223;19;19922;-84
2023/06/07 07:21:51;;;;;;;;;;;24.90;34.20;;;24.05;34.70;101464.44;12265172;19;19915;-85
2023/06/07 07:25:53;;;;;;;;;;;25.00;34.00;;;24.12;34.76;101453.16;12268255;19;20337;-85
2023/06/07 07:29:54;;;;;;;;;;;25.20;33.70;;;24.19;34.65;101446.19;12261206;19;19926;-84
2023/06/07 07:33:56;;;;;;;;;;;25.30;33.80;;;24.54;34.42;101480.00;12262982;19;19945;-85
2023/06/07 07:38:01;;;;;;;;;;;25.50;33.60;;;24.69;34.59;101466.91;12262359;19;20270;-84
2023/06/07 07:42:05;;;;;;;;;;;25.70;33.80;;;24.75;34.43;101441.38;12261657;19;19919;-84
2023/06/07 07:46:06;;;;;;;;;;;25.90;32.70;;;25.21;34.39;101474.00;12267637;19;19929;-85
2023/06/07 07:50:09;;;;;;;;;;;26.10;33.10;;;25.46;33.69;101478.41;12266154;19;19922;-83
2023/06/07 07:54:10;;;;;;;;;;;26.30;32.50;;;25.65;33.45;101479.94;12263006;19;20364;-84
2023/06/07 07:58:12;;;;;;;;;;;26.60;32.30;;;25.77;33.71;101475.94;12265175;19;19915;-84
2023/06/07 08:02:13;;;;;;;;;;;26.70;32.20;;;25.92;33.39;101470.78;12259583;19;20346;-83
2023/06/07 08:06:15;;;;;;;;;;;26.80;32.30;;;26.05;33.41;101468.44;12263051;19;19915;-85
2023/06/07 08:10:16;;;;;;;;;;;27.00;32.20;;;26.19;33.31;101463.41;12258187;19;19907;-84
2023/06/07 08:14:18;;;;;;;;;;;27.20;32.60;;;26.31;33.06;101461.25;12256595;19;19991;-84
2023/06/07 08:18:20;;;;;;;;;;;27.30;30.90;;;26.48;33.06;101454.84;12259954;19;19938;-85
2023/06/07 08:22:21;;;;;;;;;;;27.40;31.90;;;26.43;32.78;101430.41;12255117;19;19915;-85
2023/06/07 08:26:23;;;;;;;;;;;27.60;32.00;;;26.81;32.92;101466.31;12257233;19;19919;-84
2023/06/07 08:30:25;;;;;;;;;;;27.70;30.90;;;26.99;32.77;101467.94;12250873;19;19930;-84
2023/06/07 08:34:28;;;;;;;;;;;27.90;31.90;;;27.07;32.71;101460.69;12260269;19;19946;-85
2023/06/07 08:38:33;;;;;;;;;;;28.00;31.70;;;27.20;32.30;101459.31;12254756;19;20213;-85
2023/06/07 08:42:37;;;;;;;;;;;28.10;29.60;;;27.27;31.84;101457.59;12255359;19;19935;-84
2023/06/07 08:46:39;;;;;;;;;;;28.20;30.40;;;27.36;32.02;101437.75;12255860;19;19926;-83
2023/06/07 08:50:41;;;;;;;;;;;28.30;30.60;;;27.49;32.00;101443.38;12253043;19;19943;-85
2023/06/07 08:54:45;;;;;;;;;;;28.50;30.80;;;27.63;31.98;101452.50;12253246;19;19919;-85
2023/06/07 08:58:48;;;;;;;;;;;28.60;30.50;;;27.74;31.42;101446.69;12254221;19;19919;-85
2023/06/07 09:02:52;;;;;;;;;;;28.60;31.00;;;27.82;31.74;101431.59;12251995;19;19915;-85
2023/06/07 09:06:54;;;;;;;;;;;28.80;30.00;;;28.00;31.88;101437.44;12258835;19;19922;-85
2023/06/07 09:10:55;;;;;;;;;;;29.00;31.00;;;28.20;31.49;101449.34;12260450;19;19911;-85
2023/06/07 09:14:58;;;;;;;;;;;29.10;31.80;;;28.27;31.29;101440.53;12265009;19;19982;-85
2023/06/07 09:18:59;;;;;;;;;;;29.20;30.70;;;28.50;31.42;101462.84;12263872;19;19907;-84
2023/06/07 09:23:04;;;;;;;;;;;29.30;29.60;;;28.60;31.37;101452.66;12250105;19;19943;-84
2023/06/07 09:27:07;;;;;;;;;;;29.50;30.00;;;28.74;31.08;101455.53;12258580;19;19993;-84
2023/06/07 09:31:09;;;;;;;;;;;29.60;31.20;;;28.85;30.96;101455.03;12253232;19;19922;-85
2023/06/07 09:35:12;;;;;;;;;;;29.80;30.40;;;28.89;30.89;101440.19;12151487;19;19918;-85
2023/06/07 09:39:23;;;;;;;;;;;29.80;29.90;;;28.81;31.16;101408.88;12252308;19;19932;-84
2023/06/07 09:43:25;;;;;;;;;;;29.90;30.30;;;28.88;30.84;101407.09;12251717;19;19983;-84
2023/06/07 09:47:26;;;;;;;;;;;30.00;30.80;;;29.19;31.18;101443.69;12251994;19;20333;-84
2023/06/07 09:51:38;;;;;;;;;;;30.20;30.30;;;29.32;30.87;101446.50;12247177;19;19922;-85
2023/06/07 09:55:39;;;;;;;;;;;30.30;31.00;;;29.31;30.54;101439.47;12256918;19;19955;-84
2023/06/07 09:59:58;;;;;;;;;;;30.30;30.10;;;29.47;30.46;101443.78;12254632;19;19927;-84
2023/06/07 10:04:02;;;;;;;;;;;30.40;31.10;;;29.60;30.51;101442.22;12257441;19;20291;-84
2023/06/07 10:08:05;;;;;;;;;;;30.50;29.80;;;29.65;30.48;101437.97;12258936;19;20212;-83
2023/06/07 10:12:07;;;;;;;;;;;30.60;29.50;;;29.76;30.49;101442.00;12251682;19;20656;-84
2023/06/07 10:16:10;;;;;;;;;;;30.60;29.20;;;29.76;30.04;101433.94;12263300;19;19918;-84
2023/06/07 10:20:17;;;;;;;;;;;30.70;30.30;;;29.84;30.06;101431.09;12260604;19;19919;-83
2023/06/07 10:24:24;;;;;;;;;;;30.80;29.70;;;29.94;30.13;101434.25;12256443;19;20350;-83
2023/06/07 10:28:30;;;;;;;;;;;30.80;28.90;;;30.01;29.79;101431.63;12259003;19;20275;-84
2023/06/07 10:32:34;;;;;;;;;;;30.90;28.90;;;30.07;29.59;101436.22;12256929;19;20002;-83
2023/06/07 10:36:39;;;;;;;;;;;30.90;29.00;;;29.89;29.51;101380.16;12261137;19;19922;-83
2023/06/07 10:40:41;;;;;;;;;;;31.00;28.80;;;30.14;29.75;101404.78;12259748;19;19918;-85
2023/06/07 10:44:43;;;;;;;;;;;31.00;29.00;;;30.27;29.41;101412.13;12264184;19;20352;-83
2023/06/07 10:48:45;;;;;;;;;;;31.10;30.10;;;30.48;29.67;101426.56;12263801;19;19911;-85
2023/06/07 10:52:55;;;;;;;;;;;31.30;29.70;;;30.56;29.47;101426.41;12264934;19;19914;-84
2023/06/07 10:56:57;;;;;;;;;;;31.40;28.40;;;30.62;29.03;101420.22;12267704;19;19926;-84
2023/06/07 11:01:18;;;;;;;;;;;31.50;29.80;;;30.71;29.23;101421.72;12263699;19;20317;-84
2023/06/07 11:05:20;;;;;;;;;;;31.60;30.00;;;30.76;29.04;101408.47;12258811;19;19923;-83
2023/06/07 11:09:22;;;;;;;;;;;31.60;29.40;;;30.89;29.16;101402.31;12261548;19;20002;-82
2023/06/07 11:13:25;;;;;;;;;;;31.70;29.70;;;30.96;28.90;101394.25;12259881;19;19919;-85
2023/06/07 11:17:59;;;;;;;;;;;31.90;30.70;;;31.18;29.19;101403.84;12257044;19;19922;-84
2023/06/07 11:22:05;;;;;;;;;;;31.90;29.30;;;31.27;28.82;101402.63;12260645;19;19935;-84
2023/06/07 11:26:10;;;;;;;;;;;32.10;29.30;;;31.31;28.71;101397.63;12259741;19;19926;-85
2023/06/07 11:30:12;;;;;;;;;;;32.10;29.40;;;31.38;28.90;101394.97;12259806;19;19915;-84
2023/06/07 11:34:14;;;;;;;;;;;32.20;30.00;;;31.41;28.50;101397.28;12258123;19;19990;-83
2023/06/07 11:38:16;;;;;;;;;;;32.30;28.40;;;31.41;28.58;101398.09;12260311;19;19918;-82
2023/06/07 11:42:17;;;;;;;;;;;32.30;29.30;;;31.39;28.49;101389.38;12254980;19;19927;-83
2023/06/07 11:46:20;;;;;;;;;;;32.30;28.90;;;31.59;28.35;101397.47;12255326;19;19935;-84
2023/06/07 11:50:23;;;;;;;;;;;32.40;29.70;;;31.62;28.18;101393.53;12255141;19;19919;-84
2023/06/07 11:54:25;;;;;;;;;;;32.50;30.00;;;31.73;28.41;101385.66;12258072;19;19929;-84
2023/06/07 11:58:27;;;;;;;;;;;32.60;30.00;;;31.88;28.21;101387.28;12254047;19;19922;-84
2023/06/07 12:02:29;;;;;;;;;;;32.70;29.70;;;31.81;28.14;101362.13;12254272;19;20312;-83
2023/06/07 12:06:30;;;;;;;;;;;32.80;29.30;;;31.99;28.29;101377.75;12259547;19;19941;-84
2023/06/07 12:10:33;;;;;;;;;;;32.80;29.50;;;32.01;27.84;101373.78;12258527;19;19935;-84
2023/06/07 12:14:35;;;;;;;;;;;32.90;29.20;;;31.99;27.68;101366.94;12257969;19;20313;-84
2023/06/07 12:18:38;;;;;;;;;;;32.80;28.60;;;32.03;27.74;101371.72;12259609;19;19926;-83
2023/06/07 12:22:40;;;;;;;;;;;32.80;28.90;;;32.04;27.79;101359.84;12254790;19;19915;-84
2023/06/07 12:26:41;;;;;;;;;;;32.80;29.00;;;32.10;27.94;101350.91;12255600;19;19935;-84
2023/06/07 12:30:46;;;;;;;;;;;32.90;28.70;;;32.13;27.67;101358.56;12254804;19;19932;-84
2023/06/07 12:34:48;;;;;;;;;;;32.90;28.80;;;32.04;27.47;101327.44;12256723;19;20253;-83
2023/06/07 12:38:50;;;;;;;;;;;32.90;29.10;;;32.16;27.52;101341.97;12254335;19;19926;-84
2023/06/07 12:42:52;;;;;;;;;;;33.00;29.20;;;32.28;27.19;101342.13;12250075;19;19915;-82
2023/06/07 12:46:54;;;;;;;;;;;33.00;29.50;;;32.29;27.54;101343.75;12254603;19;20006;-84
2023/06/07 12:50:56;;;;;;;;;;;33.00;29.00;;;32.20;27.28;101325.31;12252987;19;19914;-85
2023/06/07 12:54:58;;;;;;;;;;;33.10;29.40;;;32.25;27.47;101341.72;12249829;19;20334;-84
2023/06/07 12:58:59;;;;;;;;;;;33.10;29.10;;;32.12;26.99;101342.59;12252016;19;19903;-83
2023/06/07 13:03:01;;;;;;;;;;;33.00;28.20;;;32.03;27.18;101339.28;12247095;19;20245;-83
2023/06/07 13:07:02;;;;;;;;;;;32.80;28.80;;;32.01;27.23;101325.16;12253394;19;20007;-83
2023/06/07 13:11:05;;;;;;;;;;;32.80;29.20;;;31.98;27.20;101330.16;12248420;19;19934;-83
2023/06/07 13:15:07;;;;;;;;;;;32.70;28.90;;;32.00;27.03;101328.91;12248935;19;20294;-83
2023/06/07 13:19:08;;;;;;;;;;;32.80;29.60;;;31.99;27.26;101335.34;12250616;19;19935;-84
2023/06/07 13:23:10;;;;;;;;;;;32.70;28.70;;;31.94;27.23;101332.44;12248497;19;19923;-82
2023/06/07 13:27:12;;;;;;;;;;;32.70;28.60;;;32.01;27.23;101333.25;12251701;19;19903;-85
2023/06/07 13:31:13;;;;;;;;;;;32.70;29.40;;;31.98;27.08;101314.78;12249410;19;20260;-84
2023/06/07 13:35:15;;;;;;;;;;;32.70;28.80;;;31.98;27.13;101316.66;12249094;19;20344;-84
2023/06/07 13:39:18;;;;;;;;;;;32.70;28.50;;;32.00;27.00;101319.94;12250664;19;20358;-83
2023/06/07 13:43:19;;;;;;;;;;;32.70;29.20;;;31.99;26.87;101318.28;12253396;19;19927;-84
2023/06/07 13:47:20;;;;;;;;;;;32.70;29.10;;;31.91;26.95;101295.00;12261904;19;20288;-82
2023/06/07 13:51:23;;;;;;;;;;;32.70;28.10;;;31.99;26.85;101302.09;12256069;19;19982;-83
2023/06/07 13:55:24;;;;;;;;;;;32.70;28.90;;;32.02;26.98;101307.88;12261611;19;19923;-82
2023/06/07 13:59:29;;;;;;;;;;;32.70;28.70;;;31.96;26.77;101287.13;12258103;19;19918;-83
2023/06/07 14:03:31;;;;;;;;;;;32.70;29.30;;;32.11;26.94;101292.28;12254004;19;19919;-84
2023/06/07 14:07:33;;;;;;;;;;;32.80;29.40;;;32.20;26.88;101292.88;12258701;19;19918;-83
2023/06/07 14:11:37;;;;;;;;;;;32.80;28.10;;;32.27;26.82;101299.91;12256236;19;19910;-83
2023/06/07 14:15:39;;;;;;;;;;;32.80;27.40;;;32.22;26.73;101285.34;12258038;19;19927;-83
2023/06/07 14:19:41;;;;;;;;;;;32.90;28.70;;;32.33;26.64;101296.34;12256774;19;19919;-83
2023/06/07 14:23:43;;;;;;;;;;;32.90;29.50;;;32.34;26.49;101287.19;12253850;19;19918;-83
2023/06/07 14:27:45;;;;;;;;;;;33.00;29.00;;;32.18;26.65;101261.47;12259242;19;20290;-83
2023/06/07 14:31:46;;;;;;;;;;;33.00;28.30;;;32.45;26.26;101298.38;12252028;19;19915;-84
2023/06/07 14:35:48;;;;;;;;;;;33.10;28.60;;;32.42;26.59;101279.88;12254843;19;20252;-83
2023/06/07 14:39:49;;;;;;;;;;;33.10;29.00;;;32.48;26.63;101289.84;12242784;19;19919;-84
2023/06/07 14:43:51;;;;;;;;;;;33.10;29.00;;;32.51;26.33;101287.53;12252088;19;20271;-83
2023/06/07 14:47:52;;;;;;;;;;;33.10;28.60;;;32.55;26.23;101296.88;12256603;19;19918;-82
2023/06/07 14:51:54;;;;;;;;;;;33.20;28.60;;;32.56;26.54;101284.19;12251344;19;19919;-84
2023/06/07 14:55:56;;;;;;;;;;;33.20;28.80;;;32.54;26.23;101292.53;12257858;19;19910;-84
2023/06/07 14:59:57;;;;;;;;;;;33.10;28.50;;;32.28;26.07;101269.13;12256843;19;19998;-84
2023/06/07 15:03:58;;;;;;;;;;;33.10;28.40;;;32.39;25.93;101283.84;12252785;19;19911;-84
2023/06/07 15:08:00;;;;;;;;;;;33.10;28.80;;;32.27;26.32;101277.44;12255887;19;19923;-84
2023/06/07 15:12:01;;;;;;;;;;;33.00;29.20;;;32.33;26.39;101287.41;12250980;19;19911;-84
2023/06/07 15:16:03;;;;;;;;;;;32.90;28.90;;;32.34;26.24;101284.47;12254679;19;19919;-83
2023/06/07 15:20:05;;;;;;;;;;;33.00;29.00;;;32.23;26.03;101268.13;12256048;19;19915;-83
2023/06/07 15:24:07;;;;;;;;;;;33.00;28.70;;;32.29;26.28;101281.59;12250970;19;19934;-84
2023/06/07 15:28:08;;;;;;;;;;;32.90;29.10;;;32.26;26.23;101271.22;12254123;19;19922;-83
2023/06/07 15:32:10;;;;;;;;;;;32.90;27.80;;;32.16;26.16;101266.28;12249262;19;19915;-83
2023/06/07 15:36:11;;;;;;;;;;;32.80;28.50;;;32.12;26.19;101272.31;12251806;19;19923;-83
2023/06/07 15:40:13;;;;;;;;;;;32.70;28.90;;;32.07;25.97;101266.72;12252882;19;19929;-82
2023/06/07 15:44:14;;;;;;;;;;;32.70;28.90;;;32.07;26.01;101274.81;12244851;19;19919;-83
2023/06/07 15:48:18;;;;;;;;;;;32.60;28.50;;;31.99;25.80;101270.47;12249770;19;20341;-84
2023/06/07 15:52:19;;;;;;;;;;;32.60;28.80;;;31.93;26.17;101271.34;12249782;19;19991;-84
2023/06/07 15:56:21;;;;;;;;;;;32.50;28.90;;;31.89;26.26;101264.66;12249082;19;19922;-83
2023/06/07 16:00:22;;;;;;;;;;;32.50;28.50;;;31.91;26.06;101268.00;12252284;19;19922;-82
2023/06/07 16:04:23;;;;;;;;;;;32.40;29.30;;;31.89;25.77;101281.72;12248657;19;19925;-84
2023/06/07 16:08:25;;;;;;;;;;;32.40;28.40;;;31.75;25.91;101253.91;12253437;19;19970;-84
2023/06/07 16:12:26;;;;;;;;;;;32.40;28.30;;;31.84;25.66;101273.44;12244838;19;19911;-83
2023/06/07 16:16:28;;;;;;;;;;;32.40;27.80;;;31.75;25.65;101264.69;12252272;19;19919;-83
2023/06/07 16:20:29;;;;;;;;;;;32.30;28.90;;;31.69;25.76;101268.25;12253039;19;20000;-82
2023/06/07 16:24:31;;;;;;;;;;;32.30;28.30;;;31.70;25.69;101267.22;12250859;19;19923;-83
2023/06/07 16:28:33;;;;;;;;;;;32.20;28.40;;;31.65;25.84;101264.34;12249322;19;19930;-83
2023/06/07 16:32:34;;;;;;;;;;;32.20;28.60;;;31.66;25.91;101260.56;12238624;19;19934;-83
2023/06/07 16:36:37;;;;;;;;;;;32.20;28.80;;;31.64;25.90;101265.34;12249660;19;19914;-82
2023/06/07 16:40:39;;;;;;;;;;;32.10;28.80;;;31.53;26.03;101252.50;12244631;19;19938;-82
2023/06/07 16:44:40;;;;;;;;;;;32.10;28.70;;;31.55;25.67;101268.50;12246587;19;19935;-83
2023/06/07 16:48:41;;;;;;;;;;;32.10;28.50;;;31.43;25.95;101257.50;12248609;19;20006;-82
2023/06/07 16:52:43;;;;;;;;;;;32.00;28.00;;;31.38;25.92;101260.84;12246613;19;19935;-83
2023/06/07 16:56:45;;;;;;;;;;;31.90;28.50;;;31.28;26.31;101257.69;12242423;19;19947;-83
2023/06/07 17:00:46;;;;;;;;;;;31.80;28.90;;;31.32;25.63;101253.53;12250346;19;19947;-83
2023/06/07 17:04:48;;;;;;;;;;;31.80;28.80;;;31.21;26.07;101240.66;12249150;19;19921;-82
2023/06/07 17:08:49;;;;;;;;;;;31.80;28.90;;;31.27;26.08;101256.88;12249404;19;19923;-83
2023/06/07 17:12:51;;;;;;;;;;;31.80;28.70;;;31.23;25.64;101255.63;12246333;19;19930;-83
2023/06/07 17:16:52;;;;;;;;;;;31.70;28.60;;;31.18;25.73;101262.69;12251007;19;19918;-82
2023/06/07 17:20:54;;;;;;;;;;;31.70;29.00;;;31.07;26.01;101245.25;12248218;19;20273;-83
2023/06/07 17:24:56;;;;;;;;;;;31.70;29.00;;;31.09;25.64;101252.09;12249632;19;19936;-84
2023/06/07 17:28:58;;;;;;;;;;;31.60;29.00;;;31.05;25.76;101253.53;12248452;19;19925;-84
2023/06/07 17:33:00;;;;;;;;;;;31.60;28.60;;;31.04;25.71;101264.56;12245915;19;19910;-83
2023/06/07 17:37:02;;;;;;;;;;;31.50;28.90;;;30.99;26.00;101253.53;12247000;19;19910;-83
2023/06/07 17:41:03;;;;;;;;;;;31.50;29.00;;;30.91;25.65;101253.75;12245486;19;20360;-84
2023/06/07 17:45:05;;;;;;;;;;;31.40;29.10;;;30.90;25.77;101260.19;12247962;19;19919;-82
2023/06/07 17:49:06;;;;;;;;;;;31.40;29.20;;;30.90;26.10;101265.59;12249098;19;19915;-84
2023/06/07 17:53:11;;;;;;;;;;;31.30;29.20;;;30.83;26.13;101254.78;12244137;19;19919;-82
2023/06/07 17:57:13;;;;;;;;;;;31.30;29.20;;;30.81;26.05;101259.53;12249589;19;19913;-81
2023/06/07 18:01:14;;;;;;;;;;;31.30;29.30;;;30.59;25.80;101237.28;12243840;19;19919;-84
2023/06/07 18:05:16;;;;;;;;;;;31.30;29.30;;;30.75;25.94;101266.56;12244231;19;19923;-84
2023/06/07 18:09:18;;;;;;;;;;;31.20;29.20;;;30.69;26.10;101278.16;12240803;19;20309;-85
2023/06/07 18:13:20;;;;;;;;;;;31.10;28.90;;;30.52;25.91;101268.81;12241044;19;19918;-83